createdAt,value
2022-11-13T00:01:23.250Z,11.33
2022-11-13T00:03:50.820Z,10.53
2022-11-13T00:06:19.508Z,10.70
2022-11-13T00:08:48.132Z,10.50
2022-11-13T00:11:19.620Z,10.63
2022-11-13T00:13:48.838Z,9.77
2022-11-13T00:16:21.847Z,9.97
2022-11-13T00:18:49.781Z,10.53
2022-11-13T00:21:23.092Z,10.20
2022-11-13T00:23:51.844Z,9.60
2022-11-13T00:26:26.020Z,10.20
2022-11-13T00:28:55.796Z,11.03
2022-11-13T00:31:23.938Z,10.07
2022-11-13T00:36:39.346Z,11.10
2022-11-13T00:39:06.792Z,10.60
2022-11-13T00:41:34.544Z,10.40
2022-11-13T00:44:04.176Z,11.63
2022-11-13T00:46:31.926Z,11.20
2022-11-13T00:48:59.331Z,10.57
2022-11-13T00:51:26.887Z,10.60
2022-11-13T00:53:54.309Z,11.27
2022-11-13T00:56:21.747Z,10.67
2022-11-13T00:58:49.267Z,10.13
2022-11-13T01:01:20.066Z,10.37
2022-11-13T01:03:47.563Z,9.27
2022-11-13T01:06:22.509Z,10.57
2022-11-13T01:08:50.852Z,9.27
2022-11-13T01:11:22.142Z,9.60
2022-11-13T01:13:51.534Z,10.50
2022-11-13T01:16:25.578Z,10.93
2022-11-13T01:18:55.632Z,11.63
2022-11-13T01:21:27.467Z,11.93
2022-11-13T01:23:56.397Z,11.73
2022-11-13T01:26:27.989Z,11.73
2022-11-13T01:28:57.488Z,10.77
2022-11-13T01:31:29.848Z,10.50
2022-11-13T01:33:58.305Z,10.60
2022-11-13T01:36:28.876Z,10.97
2022-11-13T01:38:56.794Z,11.10
2022-11-13T01:41:33.944Z,10.87
2022-11-13T01:44:02.147Z,11.10
2022-11-13T01:46:35.673Z,11.17
2022-11-13T01:49:12.158Z,12.30
2022-11-13T01:52:01.379Z,12.00
2022-11-13T01:54:36.121Z,11.97
2022-11-13T01:57:05.111Z,11.93
2022-11-13T01:59:40.555Z,12.00
2022-11-13T02:02:08.554Z,11.90
2022-11-13T02:04:37.032Z,12.03
2022-11-13T02:07:09.240Z,11.83
2022-11-13T02:09:44.248Z,12.00
2022-11-13T02:12:16.756Z,11.53
2022-11-13T02:14:53.031Z,12.27
2022-11-13T02:17:43.552Z,12.90
2022-11-13T02:20:11.555Z,14.00
2022-11-13T02:22:47.656Z,13.40
2022-11-13T02:25:15.896Z,13.67
2022-11-13T02:27:50.954Z,13.90
2022-11-13T02:30:27.116Z,14.77
2022-11-13T02:32:57.065Z,14.47
2022-11-13T02:35:34.395Z,14.87
2022-11-13T02:38:05.748Z,14.27
2022-11-13T02:40:34.552Z,13.63
2022-11-13T02:43:01.982Z,13.57
2022-11-13T02:45:29.386Z,13.93
2022-11-13T02:47:57.241Z,14.70
2022-11-13T02:50:24.628Z,13.80
2022-11-13T02:52:52.145Z,14.80
2022-11-13T02:55:19.887Z,14.03
2022-11-13T02:57:47.374Z,14.87
2022-11-13T03:00:15.499Z,14.33
2022-11-13T03:02:42.882Z,14.07
2022-11-13T03:05:12.416Z,14.70
2022-11-13T03:07:41.559Z,14.83
2022-11-13T03:10:11.165Z,15.27
2022-11-13T03:12:39.346Z,15.47
2022-11-13T03:15:08.994Z,14.57
2022-11-13T03:17:36.732Z,13.93
2022-11-13T03:20:06.113Z,15.57
2022-11-13T03:22:33.499Z,15.07
2022-11-13T03:25:02.865Z,15.83
2022-11-13T03:27:33.438Z,15.63
2022-11-13T03:30:00.935Z,15.73
2022-11-13T03:32:28.361Z,15.63
2022-11-13T03:34:55.881Z,15.13
2022-11-13T03:37:23.391Z,15.00
2022-11-13T03:39:50.923Z,14.70
2022-11-13T03:42:18.395Z,16.07
2022-11-13T03:44:45.861Z,14.97
2022-11-13T03:47:13.297Z,16.17
2022-11-13T03:49:40.689Z,15.17
2022-11-13T03:52:08.234Z,16.20
2022-11-13T03:54:35.772Z,16.23
2022-11-13T03:57:03.285Z,16.37
2022-11-13T03:59:30.695Z,14.93
2022-11-13T04:01:58.139Z,16.70
2022-11-13T04:04:25.687Z,17.30
2022-11-13T04:06:53.175Z,16.23
2022-11-13T04:09:20.582Z,16.97
2022-11-13T04:11:48.007Z,18.47
2022-11-13T04:14:15.594Z,16.73
2022-11-13T04:16:43.003Z,17.23
2022-11-13T04:19:10.436Z,17.50
2022-11-13T04:21:37.858Z,16.70
2022-11-13T04:24:05.650Z,17.23
2022-11-13T04:26:33.042Z,17.30
2022-11-13T04:29:00.419Z,18.03
2022-11-13T04:31:27.944Z,17.07
2022-11-13T04:33:55.411Z,17.17
2022-11-13T04:36:22.839Z,17.27
2022-11-13T04:38:50.263Z,17.03
2022-11-13T04:41:56.219Z,17.10
2022-11-13T04:44:23.674Z,16.80
2022-11-13T04:46:51.104Z,17.27
2022-11-13T04:49:18.475Z,17.33
2022-11-13T04:51:45.913Z,16.57
2022-11-13T04:54:13.346Z,17.33
2022-11-13T04:56:40.824Z,18.13
2022-11-13T04:59:08.320Z,17.67
2022-11-13T05:01:36.720Z,17.30
2022-11-13T05:04:04.778Z,17.27
2022-11-13T05:06:32.608Z,18.10
2022-11-13T05:09:00.002Z,16.67
2022-11-13T05:11:27.372Z,17.13
2022-11-13T05:13:58.320Z,16.13
2022-11-13T05:16:28.208Z,16.70
2022-11-13T05:18:55.647Z,16.97
2022-11-13T05:21:23.092Z,16.83
2022-11-13T05:23:50.625Z,17.77
2022-11-13T05:26:18.298Z,17.83
2022-11-13T05:28:45.723Z,18.07
2022-11-13T05:31:16.331Z,17.40
2022-11-13T05:33:44.632Z,17.60
2022-11-13T05:36:14.833Z,17.23
2022-11-13T05:38:42.767Z,18.00
2022-11-13T05:41:21.779Z,17.53
2022-11-13T05:43:51.753Z,17.10
2022-11-13T05:46:29.256Z,17.20
2022-11-13T05:49:02.381Z,16.50
2022-11-13T05:51:33.608Z,17.80
2022-11-13T05:54:02.254Z,17.50
2022-11-13T05:56:34.905Z,18.00
2022-11-13T05:59:03.953Z,16.33
2022-11-13T06:01:37.833Z,16.13
2022-11-13T06:04:07.367Z,16.40
2022-11-13T06:06:35.611Z,16.37
2022-11-13T06:09:06.462Z,17.07
2022-11-13T06:11:34.157Z,16.57
2022-11-13T06:14:02.084Z,14.83
2022-11-13T06:16:38.501Z,16.07
2022-11-13T06:19:10.086Z,15.73
2022-11-13T06:21:40.755Z,15.77
2022-11-13T06:24:11.975Z,15.67
2022-11-13T06:26:39.668Z,16.47
2022-11-13T06:29:09.998Z,16.17
2022-11-13T06:31:37.883Z,14.30
2022-11-13T06:34:06.295Z,14.03
2022-11-13T06:36:36.916Z,14.27
2022-11-13T06:39:09.770Z,15.50
2022-11-13T06:41:39.575Z,15.53
2022-11-13T06:44:07.251Z,15.00
2022-11-13T06:46:34.764Z,14.07
2022-11-13T06:49:02.340Z,14.27
2022-11-13T06:51:31.577Z,13.87
2022-11-13T06:53:59.163Z,14.57
2022-11-13T06:56:27.477Z,15.67
2022-11-13T06:58:56.453Z,14.27
2022-11-13T07:01:25.986Z,16.03
2022-11-13T07:03:54.497Z,15.50
2022-11-13T07:06:24.240Z,15.60
2022-11-13T07:08:52.168Z,14.83
2022-11-13T07:11:22.620Z,14.63
2022-11-13T07:13:50.887Z,15.27
2022-11-13T07:16:18.646Z,15.23
2022-11-13T07:18:54.149Z,16.13
2022-11-13T07:21:22.918Z,15.87
2022-11-13T07:23:51.355Z,15.57
2022-11-13T07:26:19.636Z,18.27
2022-11-13T07:28:48.479Z,17.50
2022-11-13T07:31:17.832Z,18.70
2022-11-13T07:33:48.358Z,18.00
2022-11-13T07:36:16.183Z,16.53
2022-11-13T07:38:43.702Z,17.17
2022-11-13T07:41:11.190Z,16.70
2022-11-13T07:43:38.638Z,17.33
2022-11-13T07:46:06.803Z,19.20
2022-11-13T07:48:34.206Z,17.70
2022-11-13T07:51:03.209Z,20.17
2022-11-13T07:53:31.302Z,19.73
2022-11-13T07:56:04.306Z,18.83
2022-11-13T07:58:32.110Z,19.30
2022-11-13T08:01:07.063Z,19.07
2022-11-13T08:03:34.663Z,20.20
2022-11-13T08:06:05.805Z,20.20
2022-11-13T08:08:33.936Z,18.77
2022-11-13T08:11:10.253Z,17.57
2022-11-13T08:13:38.623Z,17.53
2022-11-13T08:16:06.925Z,18.23
2022-11-13T08:18:34.616Z,19.40
2022-11-13T08:21:04.626Z,19.43
2022-11-13T08:23:32.841Z,19.00
2022-11-13T08:26:05.889Z,18.20
2022-11-13T08:28:34.217Z,18.73
2022-11-13T08:31:02.597Z,18.77
2022-11-13T08:33:30.580Z,18.63
2022-11-13T08:36:00.212Z,18.50
2022-11-13T08:38:28.391Z,17.50
2022-11-13T08:41:08.893Z,17.93
2022-11-13T08:43:36.936Z,17.73
2022-11-13T08:46:04.697Z,17.37
2022-11-13T08:48:32.360Z,16.97
2022-11-13T08:50:59.861Z,18.00
2022-11-13T08:53:27.903Z,18.87
2022-11-13T08:55:55.317Z,18.27
2022-11-13T08:58:22.791Z,17.47
2022-11-13T09:00:50.235Z,17.37
2022-11-13T09:03:17.675Z,17.73
2022-11-13T09:05:45.103Z,18.33
2022-11-13T09:08:12.764Z,18.47
2022-11-13T09:10:40.188Z,18.50
2022-11-13T09:13:09.046Z,18.50
2022-11-13T09:15:39.548Z,18.33
2022-11-13T09:18:07.177Z,19.83
2022-11-13T09:20:35.051Z,18.33
2022-11-13T09:23:09.443Z,21.13
2022-11-13T09:25:38.288Z,19.63
2022-11-13T09:28:07.431Z,20.23
2022-11-13T09:30:35.187Z,19.67
2022-11-13T09:33:02.816Z,20.07
2022-11-13T09:35:34.925Z,21.10
2022-11-13T09:38:11.249Z,22.40
2022-11-13T09:40:58.964Z,21.17
2022-11-13T09:43:38.975Z,20.77
2022-11-13T09:46:19.622Z,21.10
2022-11-13T09:49:27.633Z,19.87
2022-11-13T09:52:02.651Z,20.60
2022-11-13T09:54:33.712Z,24.43
2022-11-13T09:57:26.359Z,25.63
2022-11-13T10:00:17.941Z,20.23
2022-11-13T10:03:39.529Z,22.13
2022-11-13T10:06:37.629Z,21.83
2022-11-13T10:09:40.433Z,21.10
2022-11-13T10:12:09.265Z,20.97
2022-11-13T10:14:47.985Z,21.90
2022-11-13T10:17:27.340Z,23.77
2022-11-13T10:20:05.464Z,21.33
2022-11-13T10:23:07.323Z,20.47
2022-11-13T10:25:38.299Z,20.83
2022-11-13T10:31:19.323Z,23.30
2022-11-13T10:33:46.788Z,21.33
2022-11-13T10:36:43.074Z,20.20
2022-11-13T10:39:11.087Z,19.97
2022-11-13T10:41:53.369Z,18.93
2022-11-13T10:44:33.352Z,18.73
2022-11-13T10:47:42.428Z,20.13
2022-11-13T10:50:26.851Z,19.70
2022-11-13T10:52:56.316Z,19.77
2022-11-13T10:55:32.454Z,19.50
2022-11-13T10:58:03.788Z,21.47
2022-11-13T11:00:36.051Z,21.33
2022-11-13T11:03:03.485Z,22.07
2022-11-13T11:05:30.880Z,21.57
2022-11-13T11:07:58.738Z,18.67
2022-11-13T11:10:34.417Z,19.27
2022-11-13T11:13:12.907Z,19.57
2022-11-13T11:15:51.402Z,20.27
2022-11-13T11:18:24.396Z,20.00
2022-11-13T11:20:58.017Z,19.90
2022-11-13T11:23:43.770Z,19.27
2022-11-13T11:26:39.033Z,19.47
2022-11-13T11:29:26.306Z,20.43
2022-11-13T11:32:27.248Z,20.67
2022-11-13T11:35:13.548Z,20.37
2022-11-13T11:37:57.759Z,19.60
2022-11-13T11:40:41.718Z,18.70
2022-11-13T11:43:41.819Z,19.83
2022-11-13T11:46:13.963Z,20.90
2022-11-13T11:48:41.841Z,24.10
2022-11-13T11:51:32.623Z,22.37
2022-11-13T11:54:43.998Z,21.40
2022-11-13T11:57:56.614Z,22.03
2022-11-13T12:00:24.848Z,21.43
2022-11-13T12:03:16.430Z,21.50
2022-11-13T12:06:18.843Z,21.20
2022-11-13T12:09:20.179Z,20.17
2022-11-13T12:12:33.816Z,22.13
2022-11-13T12:15:19.610Z,21.23
2022-11-13T12:18:09.267Z,21.33
2022-11-13T12:21:09.299Z,22.13
2022-11-13T12:24:23.749Z,22.67
2022-11-13T12:27:05.413Z,21.90
2022-11-13T12:29:58.398Z,22.00
2022-11-13T12:33:00.711Z,22.13
2022-11-13T12:35:29.858Z,22.37
2022-11-13T12:38:07.737Z,21.50
2022-11-13T12:41:07.817Z,21.07
2022-11-13T12:43:40.885Z,22.00
2022-11-13T12:46:13.394Z,22.20
2022-11-13T12:48:44.202Z,21.37
2022-11-13T12:51:17.742Z,21.67
2022-11-13T12:53:54.347Z,22.23
2022-11-13T12:56:24.646Z,21.17
2022-11-13T12:59:29.347Z,20.70
2022-11-13T13:02:09.182Z,21.10
2022-11-13T13:05:19.245Z,22.87
2022-11-13T13:08:20.444Z,20.70
2022-11-13T13:10:59.597Z,21.33
2022-11-13T13:13:52.212Z,20.27
2022-11-13T13:16:27.113Z,21.20
2022-11-13T13:19:23.439Z,20.40
2022-11-13T13:21:50.872Z,20.63
2022-11-13T13:24:36.913Z,20.80
2022-11-13T13:27:27.542Z,21.97
2022-11-13T13:29:55.320Z,21.20
2022-11-13T13:33:01.543Z,21.93
2022-11-13T13:36:09.165Z,21.30
2022-11-13T13:38:57.884Z,20.93
2022-11-13T13:41:36.503Z,21.73
2022-11-13T13:44:06.720Z,21.43
2022-11-13T13:46:35.300Z,22.03
2022-11-13T13:49:09.609Z,24.30
2022-11-13T13:51:52.071Z,23.20
2022-11-13T13:54:33.164Z,21.83
2022-11-13T13:57:01.987Z,20.70
2022-11-13T13:59:37.684Z,22.73
2022-11-13T14:02:25.453Z,22.93
2022-11-13T14:04:54.972Z,22.67
2022-11-13T14:07:29.282Z,23.90
2022-11-13T14:10:22.168Z,24.43
2022-11-13T14:12:49.739Z,22.00
2022-11-13T14:15:34.780Z,26.70
2022-11-13T14:18:17.614Z,21.57
2022-11-13T14:21:21.337Z,22.30
2022-11-13T14:23:52.050Z,22.30
2022-11-13T14:26:21.002Z,20.87
2022-11-13T14:28:53.528Z,21.30
2022-11-13T14:31:30.432Z,20.57
2022-11-13T14:34:10.817Z,20.60
2022-11-13T14:36:40.974Z,21.27
2022-11-13T14:39:24.752Z,22.70
2022-11-13T14:41:59.620Z,23.87
2022-11-13T14:44:35.194Z,27.20
2022-11-13T14:47:24.572Z,36.33
2022-11-13T14:49:52.045Z,29.60
2022-11-13T14:52:29.069Z,26.37
2022-11-13T14:55:15.356Z,25.47
2022-11-13T14:57:50.335Z,25.20
2022-11-13T15:00:25.915Z,26.83
2022-11-13T15:02:53.347Z,26.87
2022-11-13T15:05:20.825Z,27.87
2022-11-13T15:07:48.446Z,31.10
2022-11-13T15:10:22.056Z,58.47
2022-11-13T15:12:49.890Z,48.27
2022-11-13T15:15:25.930Z,41.57
2022-11-13T15:17:54.107Z,31.40
2022-11-13T15:20:28.336Z,32.90
2022-11-13T15:22:57.584Z,34.03
2022-11-13T15:25:26.104Z,33.57
2022-11-13T15:27:53.649Z,30.03
2022-11-13T15:30:21.726Z,28.57
2022-11-13T15:32:53.979Z,32.77
2022-11-13T15:35:21.892Z,45.03
2022-11-13T15:37:49.399Z,33.43
2022-11-13T15:40:17.975Z,30.40
2022-11-13T15:42:45.736Z,30.20
2022-11-13T15:45:17.320Z,26.30
2022-11-13T15:47:44.797Z,27.50
2022-11-13T15:50:14.958Z,26.20
2022-11-13T15:52:46.809Z,27.83
2022-11-13T15:55:30.001Z,28.20
2022-11-13T15:57:58.654Z,30.27
2022-11-13T16:00:28.599Z,32.37
2022-11-13T16:02:58.049Z,33.97
2022-11-13T16:05:29.541Z,33.57
2022-11-13T16:07:57.837Z,30.63
2022-11-13T16:10:25.792Z,31.23
2022-11-13T16:12:53.835Z,31.93
2022-11-13T16:15:21.869Z,30.43
2022-11-13T16:17:56.336Z,32.47
2022-11-13T16:20:24.224Z,30.37
2022-11-13T16:22:52.038Z,31.47
2022-11-13T16:25:21.836Z,30.80
2022-11-13T16:27:49.293Z,31.00
2022-11-13T16:30:23.462Z,33.60
2022-11-13T16:32:50.947Z,38.87
2022-11-13T16:35:20.775Z,41.10
2022-11-13T16:37:48.291Z,39.03
2022-11-13T16:40:24.344Z,35.50
2022-11-13T16:42:52.070Z,36.53
2022-11-13T16:45:20.989Z,36.73
2022-11-13T16:47:50.821Z,36.50
2022-11-13T16:50:25.333Z,39.73
2022-11-13T16:52:53.187Z,40.10
2022-11-13T16:55:20.573Z,39.63
2022-11-13T16:57:48.291Z,38.80
2022-11-13T17:00:19.505Z,42.67
2022-11-13T17:02:49.916Z,42.23
2022-11-13T17:05:18.248Z,42.17
2022-11-13T17:07:45.971Z,45.83
2022-11-13T17:10:30.984Z,50.07
2022-11-13T17:13:00.199Z,49.67
2022-11-13T17:15:27.788Z,48.07
2022-11-13T17:18:00.353Z,43.53
2022-11-13T17:20:27.922Z,40.33
2022-11-13T17:22:55.363Z,46.60
2022-11-13T17:25:26.719Z,51.67
2022-11-13T17:27:54.457Z,45.93
2022-11-13T17:30:22.145Z,40.90
2022-11-13T17:32:49.604Z,41.93
2022-11-13T17:35:17.132Z,42.17
2022-11-13T17:37:44.582Z,46.23
2022-11-13T17:40:12.505Z,42.57
2022-11-13T17:42:41.292Z,43.60
2022-11-13T17:45:09.396Z,51.10
2022-11-13T17:47:36.750Z,50.77
2022-11-13T17:50:07.581Z,46.93
2022-11-13T17:52:35.299Z,47.83
2022-11-13T17:55:06.393Z,39.13
2022-11-13T17:57:34.108Z,40.17
2022-11-13T18:00:01.637Z,41.13
2022-11-13T18:02:29.049Z,37.20
2022-11-13T18:04:59.280Z,37.93
2022-11-13T18:07:27.349Z,46.77
2022-11-13T18:09:54.815Z,42.63
2022-11-13T18:12:22.226Z,44.50
2022-11-13T18:14:52.678Z,44.23
2022-11-13T18:17:22.369Z,41.00
2022-11-13T18:19:51.117Z,40.27
2022-11-13T18:22:18.737Z,41.00
2022-11-13T18:24:46.228Z,37.47
2022-11-13T18:27:14.456Z,37.10
2022-11-13T18:29:41.845Z,35.47
2022-11-13T18:32:09.227Z,38.30
2022-11-13T18:34:36.749Z,34.97
2022-11-13T18:37:04.196Z,36.90
2022-11-13T18:39:31.623Z,39.47
2022-11-13T18:42:00.485Z,38.93
2022-11-13T18:44:27.894Z,39.03
2022-11-13T18:46:55.368Z,38.80
2022-11-13T18:49:22.908Z,41.07
2022-11-13T18:51:50.457Z,37.73
2022-11-13T18:54:17.950Z,41.63
2022-11-13T18:56:45.344Z,43.77
2022-11-13T18:59:12.764Z,46.87
2022-11-13T19:01:40.349Z,43.97
2022-11-13T19:04:27.677Z,43.77
2022-11-13T19:06:55.201Z,41.90
2022-11-13T19:09:22.579Z,39.70
2022-11-13T19:11:51.434Z,39.77
2022-11-13T19:14:19.644Z,42.07
2022-11-13T19:16:47.042Z,38.83
2022-11-13T19:19:23.601Z,42.00
2022-11-13T19:21:51.436Z,42.50
2022-11-13T19:24:19.044Z,42.67
2022-11-13T19:26:46.592Z,42.70
2022-11-13T19:29:14.108Z,38.93
2022-11-13T19:31:41.624Z,41.20
2022-11-13T19:34:10.400Z,37.37
2022-11-13T19:36:37.845Z,37.30
2022-11-13T19:39:05.539Z,38.23
2022-11-13T19:41:33.395Z,38.33
2022-11-13T19:44:00.852Z,42.40
2022-11-13T19:46:32.122Z,42.00
2022-11-13T19:48:59.912Z,42.07
2022-11-13T19:51:27.767Z,39.87
2022-11-13T19:53:59.005Z,38.40
2022-11-13T19:56:28.700Z,38.10
2022-11-13T19:58:57.124Z,38.87
2022-11-13T20:01:27.637Z,42.93
2022-11-13T20:04:02.139Z,41.13
2022-11-13T20:06:32.238Z,38.43
2022-11-13T20:09:01.396Z,38.27
2022-11-13T20:11:29.112Z,44.10
2022-11-13T20:13:57.432Z,41.73
2022-11-13T20:16:26.008Z,38.27
2022-11-13T20:18:57.903Z,37.50
2022-11-13T20:21:27.375Z,35.80
2022-11-13T20:23:57.450Z,39.33
2022-11-13T20:26:25.640Z,40.83
2022-11-13T20:28:53.131Z,39.87
2022-11-13T20:31:23.608Z,43.30
2022-11-13T20:33:52.854Z,46.10
2022-11-13T20:36:21.153Z,43.53
2022-11-13T20:38:54.717Z,41.13
2022-11-13T20:41:24.186Z,36.17
2022-11-13T20:43:52.996Z,35.87
2022-11-13T20:46:21.493Z,36.13
2022-11-13T20:48:49.653Z,38.33
2022-11-13T20:51:21.124Z,40.23
2022-11-13T20:53:49.319Z,38.10
2022-11-13T20:56:19.541Z,49.47
2022-11-13T20:58:47.540Z,50.53
2022-11-13T21:01:18.463Z,50.77
2022-11-13T21:03:46.960Z,47.13
2022-11-13T21:06:18.779Z,46.07
2022-11-13T21:08:47.116Z,42.60
2022-11-13T21:11:25.494Z,43.30
2022-11-13T21:13:55.494Z,47.33
2022-11-13T21:16:23.628Z,44.83
2022-11-13T21:18:51.508Z,46.67
2022-11-13T21:21:26.283Z,46.23
2022-11-13T21:23:56.820Z,44.90
2022-11-13T21:26:24.591Z,44.37
2022-11-13T21:28:56.988Z,34.20
2022-11-13T21:31:24.462Z,37.70
2022-11-13T21:33:52.690Z,40.97
2022-11-13T21:36:26.433Z,41.77
2022-11-13T21:38:55.958Z,45.50
2022-11-13T21:41:25.253Z,42.43
2022-11-13T21:43:59.520Z,41.80
2022-11-13T21:46:32.200Z,42.77
2022-11-13T21:49:05.849Z,41.20
2022-11-13T21:51:36.013Z,40.73
2022-11-13T21:54:04.449Z,42.83
2022-11-13T21:56:34.606Z,43.20
2022-11-13T21:59:02.508Z,43.03
2022-11-13T22:01:37.580Z,43.50
2022-11-13T22:04:06.520Z,44.60
2022-11-13T22:06:39.916Z,42.63
2022-11-13T22:09:16.309Z,45.53
2022-11-13T22:11:44.561Z,45.53
2022-11-13T22:14:11.996Z,44.37
2022-11-13T22:16:43.355Z,44.13
2022-11-13T22:19:15.167Z,42.40
2022-11-13T22:21:43.561Z,37.47
2022-11-13T22:24:12.459Z,36.23
2022-11-13T22:26:45.509Z,36.90
2022-11-13T22:29:12.990Z,35.10
2022-11-13T22:31:41.090Z,34.17
2022-11-13T22:34:08.495Z,36.13
2022-11-13T22:36:37.480Z,32.10
2022-11-13T22:39:06.190Z,32.83
2022-11-13T22:41:36.474Z,33.47
2022-11-13T22:44:07.784Z,33.33
2022-11-13T22:46:36.640Z,33.70
2022-11-13T22:49:06.516Z,32.50
2022-11-13T22:51:41.759Z,30.97
2022-11-13T22:54:12.172Z,31.67
2022-11-13T22:56:41.175Z,33.07
2022-11-13T22:59:11.681Z,36.53
2022-11-13T23:01:41.325Z,35.23
2022-11-13T23:04:13.418Z,31.10
2022-11-13T23:06:41.764Z,33.10
2022-11-13T23:09:09.609Z,31.23
2022-11-13T23:11:40.385Z,30.83
2022-11-13T23:14:12.322Z,29.70
2022-11-13T23:16:40.039Z,30.20
2022-11-13T23:19:07.843Z,29.60
2022-11-13T23:21:35.386Z,27.10
2022-11-13T23:24:02.967Z,28.00
2022-11-13T23:26:30.884Z,27.67
2022-11-13T23:28:58.382Z,29.13
2022-11-13T23:31:25.811Z,29.43
2022-11-13T23:33:53.308Z,37.97
2022-11-13T23:36:20.812Z,31.07
2022-11-13T23:38:48.220Z,37.37
2022-11-13T23:41:15.643Z,38.63
2022-11-13T23:46:30.432Z,32.13
2022-11-13T23:48:57.915Z,32.30
2022-11-13T23:51:25.335Z,30.13
2022-11-13T23:53:52.767Z,27.67
2022-11-13T23:56:20.165Z,29.03
2022-11-13T23:58:47.634Z,26.97
